sensor_id;sensor_type;location;lat;lon;timestamp;temperature;humidity
58447;DHT22;44240;51.840;7.258;2024-01-30T00:02:02;9.00;78.10
58447;DHT22;44240;51.840;7.258;2024-01-30T00:04:29;9.00;78.10
58447;DHT22;44240;51.840;7.258;2024-01-30T00:06:56;9.00;78.10
58447;DHT22;44240;51.840;7.258;2024-01-30T00:09:23;9.10;78.10
58447;DHT22;44240;51.840;7.258;2024-01-30T00:11:50;9.00;78.20
58447;DHT22;44240;51.840;7.258;2024-01-30T00:14:17;9.00;78.30
58447;DHT22;44240;51.840;7.258;2024-01-30T00:16:44;9.00;78.40
58447;DHT22;44240;51.840;7.258;2024-01-30T00:19:11;9.00;78.40
58447;DHT22;44240;51.840;7.258;2024-01-30T00:21:38;9.00;78.50
58447;DHT22;44240;51.840;7.258;2024-01-30T00:24:05;9.10;78.70
58447;DHT22;44240;51.840;7.258;2024-01-30T00:26:32;9.10;78.80
58447;DHT22;44240;51.840;7.258;2024-01-30T00:28:59;9.10;78.90
58447;DHT22;44240;51.840;7.258;2024-01-30T00:31:25;9.10;78.90
58447;DHT22;44240;51.840;7.258;2024-01-30T00:33:52;9.10;79.10
58447;DHT22;44240;51.840;7.258;2024-01-30T00:36:19;9.10;79.10
58447;DHT22;44240;51.840;7.258;2024-01-30T00:38:46;9.20;79.20
58447;DHT22;44240;51.840;7.258;2024-01-30T00:41:13;9.20;79.10
58447;DHT22;44240;51.840;7.258;2024-01-30T00:43:40;9.20;79.10
58447;DHT22;44240;51.840;7.258;2024-01-30T00:46:07;9.20;79.10
58447;DHT22;44240;51.840;7.258;2024-01-30T00:48:33;9.30;79.20
58447;DHT22;44240;51.840;7.258;2024-01-30T00:51:00;9.30;79.30
58447;DHT22;44240;51.840;7.258;2024-01-30T00:53:27;9.30;80.40
58447;DHT22;44240;51.840;7.258;2024-01-30T00:55:53;9.30;79.40
58447;DHT22;44240;51.840;7.258;2024-01-30T00:58:20;9.30;79.40
58447;DHT22;44240;51.840;7.258;2024-01-30T01:00:47;9.30;79.40
58447;DHT22;44240;51.840;7.258;2024-01-30T01:03:14;9.30;79.40
58447;DHT22;44240;51.840;7.258;2024-01-30T01:05:41;9.30;79.30
58447;DHT22;44240;51.840;7.258;2024-01-30T01:08:08;9.30;79.40
58447;DHT22;44240;51.840;7.258;2024-01-30T01:10:35;9.30;79.30
58447;DHT22;44240;51.840;7.258;2024-01-30T01:13:02;9.30;79.30
58447;DHT22;44240;51.840;7.258;2024-01-30T01:15:29;9.30;79.40
58447;DHT22;44240;51.840;7.258;2024-01-30T01:17:56;9.30;80.40
58447;DHT22;44240;51.840;7.258;2024-01-30T01:20:23;9.30;79.30
58447;DHT22;44240;51.840;7.258;2024-01-30T01:22:50;9.30;79.30
58447;DHT22;44240;51.840;7.258;2024-01-30T01:25:17;9.40;79.40
58447;DHT22;44240;51.840;7.258;2024-01-30T01:27:44;9.40;79.40
58447;DHT22;44240;51.840;7.258;2024-01-30T01:30:18;9.40;79.30
58447;DHT22;44240;51.840;7.258;2024-01-30T01:32:52;9.40;79.30
58447;DHT22;44240;51.840;7.258;2024-01-30T01:35:23;9.40;79.10
58447;DHT22;44240;51.840;7.258;2024-01-30T01:37:52;9.40;79.00
58447;DHT22;44240;51.840;7.258;2024-01-30T01:40:26;9.40;78.90
58447;DHT22;44240;51.840;7.258;2024-01-30T01:42:54;9.40;78.80
58447;DHT22;44240;51.840;7.258;2024-01-30T01:45:21;9.40;78.70
58447;DHT22;44240;51.840;7.258;2024-01-30T01:47:51;9.30;78.60
58447;DHT22;44240;51.840;7.258;2024-01-30T01:50:18;9.30;78.70
58447;DHT22;44240;51.840;7.258;2024-01-30T01:52:48;9.40;78.80
58447;DHT22;44240;51.840;7.258;2024-01-30T01:55:16;9.40;78.80
58447;DHT22;44240;51.840;7.258;2024-01-30T01:57:44;9.30;78.70
58447;DHT22;44240;51.840;7.258;2024-01-30T02:00:12;9.30;78.80
58447;DHT22;44240;51.840;7.258;2024-01-30T02:02:40;9.30;78.90
58447;DHT22;44240;51.840;7.258;2024-01-30T02:05:08;9.40;79.00
58447;DHT22;44240;51.840;7.258;2024-01-30T02:07:35;9.40;78.90
58447;DHT22;44240;51.840;7.258;2024-01-30T02:10:02;9.40;78.90
58447;DHT22;44240;51.840;7.258;2024-01-30T02:12:30;9.40;79.00
58447;DHT22;44240;51.840;7.258;2024-01-30T02:14:57;9.40;79.10
58447;DHT22;44240;51.840;7.258;2024-01-30T02:17:24;9.40;79.10
58447;DHT22;44240;51.840;7.258;2024-01-30T02:19:52;9.40;79.10
58447;DHT22;44240;51.840;7.258;2024-01-30T02:22:20;9.40;79.00
58447;DHT22;44240;51.840;7.258;2024-01-30T02:24:47;9.40;78.80
58447;DHT22;44240;51.840;7.258;2024-01-30T02:27:13;9.40;78.80
58447;DHT22;44240;51.840;7.258;2024-01-30T02:29:40;9.40;78.80
58447;DHT22;44240;51.840;7.258;2024-01-30T02:32:07;9.40;78.80
58447;DHT22;44240;51.840;7.258;2024-01-30T02:34:34;9.40;78.70
58447;DHT22;44240;51.840;7.258;2024-01-30T02:37:01;9.40;78.70
58447;DHT22;44240;51.840;7.258;2024-01-30T02:39:28;9.40;78.60
58447;DHT22;44240;51.840;7.258;2024-01-30T02:41:55;9.40;78.60
58447;DHT22;44240;51.840;7.258;2024-01-30T02:44:22;9.40;78.70
58447;DHT22;44240;51.840;7.258;2024-01-30T02:46:48;9.40;78.60
58447;DHT22;44240;51.840;7.258;2024-01-30T02:49:15;9.40;78.60
58447;DHT22;44240;51.840;7.258;2024-01-30T02:51:42;9.40;78.60
58447;DHT22;44240;51.840;7.258;2024-01-30T02:54:09;9.30;78.60
58447;DHT22;44240;51.840;7.258;2024-01-30T02:56:36;9.30;78.60
58447;DHT22;44240;51.840;7.258;2024-01-30T02:59:03;9.30;78.70
58447;DHT22;44240;51.840;7.258;2024-01-30T03:01:30;9.30;78.70
58447;DHT22;44240;51.840;7.258;2024-01-30T03:03:58;9.30;78.70
58447;DHT22;44240;51.840;7.258;2024-01-30T03:06:25;9.30;78.60
58447;DHT22;44240;51.840;7.258;2024-01-30T03:08:52;9.30;78.60
58447;DHT22;44240;51.840;7.258;2024-01-30T03:11:18;9.30;78.70
58447;DHT22;44240;51.840;7.258;2024-01-30T03:13:45;9.20;78.60
58447;DHT22;44240;51.840;7.258;2024-01-30T03:16:12;9.30;78.70
58447;DHT22;44240;51.840;7.258;2024-01-30T03:18:38;9.30;78.70
58447;DHT22;44240;51.840;7.258;2024-01-30T03:21:05;9.30;78.60
58447;DHT22;44240;51.840;7.258;2024-01-30T03:23:32;9.30;78.60
58447;DHT22;44240;51.840;7.258;2024-01-30T03:25:59;9.30;78.50
58447;DHT22;44240;51.840;7.258;2024-01-30T03:28:26;9.20;78.40
58447;DHT22;44240;51.840;7.258;2024-01-30T03:30:53;9.20;78.50
58447;DHT22;44240;51.840;7.258;2024-01-30T03:33:19;9.20;78.30
58447;DHT22;44240;51.840;7.258;2024-01-30T03:35:46;9.20;78.30
58447;DHT22;44240;51.840;7.258;2024-01-30T03:38:13;9.20;78.30
58447;DHT22;44240;51.840;7.258;2024-01-30T03:40:40;9.10;78.30
58447;DHT22;44240;51.840;7.258;2024-01-30T03:43:06;9.10;78.30
58447;DHT22;44240;51.840;7.258;2024-01-30T03:45:33;9.10;78.40
58447;DHT22;44240;51.840;7.258;2024-01-30T03:48:00;9.10;78.40
58447;DHT22;44240;51.840;7.258;2024-01-30T03:50:27;9.10;78.40
58447;DHT22;44240;51.840;7.258;2024-01-30T03:52:55;9.00;78.40
58447;DHT22;44240;51.840;7.258;2024-01-30T03:55:22;9.00;78.40
58447;DHT22;44240;51.840;7.258;2024-01-30T03:57:49;9.00;78.60
58447;DHT22;44240;51.840;7.258;2024-01-30T04:00:16;9.00;78.70
58447;DHT22;44240;51.840;7.258;2024-01-30T04:02:43;9.00;78.90
58447;DHT22;44240;51.840;7.258;2024-01-30T04:05:10;9.00;78.90
58447;DHT22;44240;51.840;7.258;2024-01-30T04:07:36;9.00;79.00
58447;DHT22;44240;51.840;7.258;2024-01-30T04:10:03;9.00;79.00
58447;DHT22;44240;51.840;7.258;2024-01-30T04:12:32;9.00;79.00
58447;DHT22;44240;51.840;7.258;2024-01-30T04:14:59;9.00;78.90
58447;DHT22;44240;51.840;7.258;2024-01-30T04:17:25;9.00;78.90
58447;DHT22;44240;51.840;7.258;2024-01-30T04:19:52;9.00;79.00
58447;DHT22;44240;51.840;7.258;2024-01-30T04:22:19;9.00;78.90
58447;DHT22;44240;51.840;7.258;2024-01-30T04:24:46;9.00;78.90
58447;DHT22;44240;51.840;7.258;2024-01-30T04:27:13;9.00;78.90
58447;DHT22;44240;51.840;7.258;2024-01-30T04:29:40;9.00;78.10
58447;DHT22;44240;51.840;7.258;2024-01-30T04:32:07;9.00;78.90
58447;DHT22;44240;51.840;7.258;2024-01-30T04:34:33;9.00;78.90
58447;DHT22;44240;51.840;7.258;2024-01-30T04:37:00;9.00;79.00
58447;DHT22;44240;51.840;7.258;2024-01-30T04:39:27;9.00;79.20
58447;DHT22;44240;51.840;7.258;2024-01-30T04:41:54;9.00;79.30
58447;DHT22;44240;51.840;7.258;2024-01-30T04:44:21;9.00;79.30
58447;DHT22;44240;51.840;7.258;2024-01-30T04:46:48;8.90;79.20
58447;DHT22;44240;51.840;7.258;2024-01-30T04:49:14;9.00;79.30
58447;DHT22;44240;51.840;7.258;2024-01-30T04:51:41;9.00;79.20
58447;DHT22;44240;51.840;7.258;2024-01-30T04:54:08;9.00;79.20
58447;DHT22;44240;51.840;7.258;2024-01-30T04:56:35;9.00;79.30
58447;DHT22;44240;51.840;7.258;2024-01-30T04:59:03;8.90;79.10
58447;DHT22;44240;51.840;7.258;2024-01-30T05:01:30;9.00;79.20
58447;DHT22;44240;51.840;7.258;2024-01-30T05:03:57;9.00;79.20
58447;DHT22;44240;51.840;7.258;2024-01-30T05:06:27;9.00;79.20
58447;DHT22;44240;51.840;7.258;2024-01-30T05:08:54;8.90;79.10
58447;DHT22;44240;51.840;7.258;2024-01-30T05:11:21;9.00;79.10
58447;DHT22;44240;51.840;7.258;2024-01-30T05:13:48;8.90;79.10
58447;DHT22;44240;51.840;7.258;2024-01-30T05:16:15;8.90;79.10
58447;DHT22;44240;51.840;7.258;2024-01-30T05:18:41;8.90;79.10
58447;DHT22;44240;51.840;7.258;2024-01-30T05:21:09;8.90;79.10
58447;DHT22;44240;51.840;7.258;2024-01-30T05:23:36;8.90;79.20
58447;DHT22;44240;51.840;7.258;2024-01-30T05:26:03;8.90;79.10
58447;DHT22;44240;51.840;7.258;2024-01-30T05:28:30;8.90;79.10
58447;DHT22;44240;51.840;7.258;2024-01-30T05:30:57;8.90;79.10
58447;DHT22;44240;51.840;7.258;2024-01-30T05:33:24;8.90;79.20
58447;DHT22;44240;51.840;7.258;2024-01-30T05:35:51;8.90;79.20
58447;DHT22;44240;51.840;7.258;2024-01-30T05:38:21;8.90;79.20
58447;DHT22;44240;51.840;7.258;2024-01-30T05:40:47;8.90;79.20
58447;DHT22;44240;51.840;7.258;2024-01-30T05:43:14;8.90;79.30
58447;DHT22;44240;51.840;7.258;2024-01-30T05:45:41;8.90;79.30
58447;DHT22;44240;51.840;7.258;2024-01-30T05:48:08;8.90;79.30
58447;DHT22;44240;51.840;7.258;2024-01-30T05:50:35;8.90;79.40
58447;DHT22;44240;51.840;7.258;2024-01-30T05:53:02;8.90;79.40
58447;DHT22;44240;51.840;7.258;2024-01-30T05:55:29;8.90;80.40
58447;DHT22;44240;51.840;7.258;2024-01-30T05:57:55;8.90;79.40
58447;DHT22;44240;51.840;7.258;2024-01-30T06:00:22;8.80;79.30
58447;DHT22;44240;51.840;7.258;2024-01-30T06:02:49;8.90;79.40
58447;DHT22;44240;51.840;7.258;2024-01-30T06:05:16;8.80;79.30
58447;DHT22;44240;51.840;7.258;2024-01-30T06:07:43;8.90;79.30
58447;DHT22;44240;51.840;7.258;2024-01-30T06:10:10;8.90;79.30
58447;DHT22;44240;51.840;7.258;2024-01-30T06:12:37;8.80;79.30
58447;DHT22;44240;51.840;7.258;2024-01-30T06:15:04;8.80;79.30
58447;DHT22;44240;51.840;7.258;2024-01-30T06:17:31;8.80;79.40
58447;DHT22;44240;51.840;7.258;2024-01-30T06:19:59;8.80;79.50
58447;DHT22;44240;51.840;7.258;2024-01-30T06:22:26;8.80;79.50
58447;DHT22;44240;51.840;7.258;2024-01-30T06:24:52;8.80;79.50
58447;DHT22;44240;51.840;7.258;2024-01-30T06:27:19;8.80;79.50
58447;DHT22;44240;51.840;7.258;2024-01-30T06:29:46;8.80;79.60
58447;DHT22;44240;51.840;7.258;2024-01-30T06:32:13;8.80;79.60
58447;DHT22;44240;51.840;7.258;2024-01-30T06:34:41;8.80;79.60
58447;DHT22;44240;51.840;7.258;2024-01-30T06:37:08;8.80;79.60
58447;DHT22;44240;51.840;7.258;2024-01-30T06:39:35;8.80;79.70
58447;DHT22;44240;51.840;7.258;2024-01-30T06:42:01;8.80;79.60
58447;DHT22;44240;51.840;7.258;2024-01-30T06:44:28;8.80;79.60
58447;DHT22;44240;51.840;7.258;2024-01-30T06:46:59;8.80;79.70
58447;DHT22;44240;51.840;7.258;2024-01-30T06:49:25;8.80;79.80
58447;DHT22;44240;51.840;7.258;2024-01-30T06:51:52;8.70;79.80
58447;DHT22;44240;51.840;7.258;2024-01-30T06:54:19;8.80;80.00
58447;DHT22;44240;51.840;7.258;2024-01-30T06:56:46;8.80;80.00
58447;DHT22;44240;51.840;7.258;2024-01-30T06:59:13;8.80;80.10
58447;DHT22;44240;51.840;7.258;2024-01-30T07:01:40;8.80;80.10
58447;DHT22;44240;51.840;7.258;2024-01-30T07:04:07;8.90;80.10
58447;DHT22;44240;51.840;7.258;2024-01-30T07:06:33;8.80;80.00
58447;DHT22;44240;51.840;7.258;2024-01-30T07:09:00;8.90;80.10
58447;DHT22;44240;51.840;7.258;2024-01-30T07:11:27;8.90;80.10
58447;DHT22;44240;51.840;7.258;2024-01-30T07:13:55;8.90;80.10
58447;DHT22;44240;51.840;7.258;2024-01-30T07:16:22;8.90;80.10
58447;DHT22;44240;51.840;7.258;2024-01-30T07:18:52;8.90;80.10
58447;DHT22;44240;51.840;7.258;2024-01-30T07:21:19;8.90;80.10
58447;DHT22;44240;51.840;7.258;2024-01-30T07:23:48;8.90;80.20
58447;DHT22;44240;51.840;7.258;2024-01-30T07:26:15;8.90;80.20
58447;DHT22;44240;51.840;7.258;2024-01-30T07:28:41;8.90;80.30
58447;DHT22;44240;51.840;7.258;2024-01-30T07:31:09;8.90;80.10
58447;DHT22;44240;51.840;7.258;2024-01-30T07:33:36;8.90;80.40
58447;DHT22;44240;51.840;7.258;2024-01-30T07:36:02;8.90;80.40
58447;DHT22;44240;51.840;7.258;2024-01-30T07:38:31;8.90;80.30
58447;DHT22;44240;51.840;7.258;2024-01-30T07:40:59;8.90;80.30
58447;DHT22;44240;51.840;7.258;2024-01-30T07:43:25;8.90;80.40
58447;DHT22;44240;51.840;7.258;2024-01-30T07:45:52;9.00;80.50
58447;DHT22;44240;51.840;7.258;2024-01-30T07:48:19;9.00;80.40
58447;DHT22;44240;51.840;7.258;2024-01-30T07:50:46;9.00;80.50
58447;DHT22;44240;51.840;7.258;2024-01-30T07:53:13;9.00;80.50
58447;DHT22;44240;51.840;7.258;2024-01-30T07:55:39;9.00;80.60
58447;DHT22;44240;51.840;7.258;2024-01-30T07:58:06;9.00;80.60
58447;DHT22;44240;51.840;7.258;2024-01-30T08:00:33;9.10;80.70
58447;DHT22;44240;51.840;7.258;2024-01-30T08:03:00;9.10;80.70
58447;DHT22;44240;51.840;7.258;2024-01-30T08:05:27;9.10;80.70
58447;DHT22;44240;51.840;7.258;2024-01-30T08:07:54;9.10;80.70
58447;DHT22;44240;51.840;7.258;2024-01-30T08:10:20;9.10;80.80
58447;DHT22;44240;51.840;7.258;2024-01-30T08:12:47;9.20;80.90
58447;DHT22;44240;51.840;7.258;2024-01-30T08:15:14;9.20;80.90
58447;DHT22;44240;51.840;7.258;2024-01-30T08:17:41;9.30;80.90
58447;DHT22;44240;51.840;7.258;2024-01-30T08:20:08;9.30;81.10
58447;DHT22;44240;51.840;7.258;2024-01-30T08:22:40;9.30;80.80
58447;DHT22;44240;51.840;7.258;2024-01-30T08:25:07;9.30;80.80
58447;DHT22;44240;51.840;7.258;2024-01-30T08:27:35;9.30;80.80
58447;DHT22;44240;51.840;7.258;2024-01-30T08:30:02;9.40;80.70
58447;DHT22;44240;51.840;7.258;2024-01-30T08:32:29;9.40;80.70
58447;DHT22;44240;51.840;7.258;2024-01-30T08:34:56;9.40;80.60
58447;DHT22;44240;51.840;7.258;2024-01-30T08:37:24;9.50;80.70
58447;DHT22;44240;51.840;7.258;2024-01-30T08:39:51;9.50;80.70
58447;DHT22;44240;51.840;7.258;2024-01-30T08:42:18;9.60;80.80
58447;DHT22;44240;51.840;7.258;2024-01-30T08:44:49;9.60;80.70
58447;DHT22;44240;51.840;7.258;2024-01-30T08:47:18;9.60;80.70
58447;DHT22;44240;51.840;7.258;2024-01-30T08:49:45;9.70;80.70
58447;DHT22;44240;51.840;7.258;2024-01-30T08:52:12;9.70;80.60
58447;DHT22;44240;51.840;7.258;2024-01-30T08:54:39;9.80;80.60
58447;DHT22;44240;51.840;7.258;2024-01-30T08:57:05;9.80;80.60
58447;DHT22;44240;51.840;7.258;2024-01-30T08:59:32;9.80;80.60
58447;DHT22;44240;51.840;7.258;2024-01-30T09:02:00;9.90;80.60
58447;DHT22;44240;51.840;7.258;2024-01-30T09:04:38;9.90;80.60
58447;DHT22;44240;51.840;7.258;2024-01-30T09:07:06;9.90;80.50
58447;DHT22;44240;51.840;7.258;2024-01-30T09:09:38;10.00;80.50
58447;DHT22;44240;51.840;7.258;2024-01-30T09:12:07;10.00;80.50
58447;DHT22;44240;51.840;7.258;2024-01-30T09:14:37;10.10;80.50
58447;DHT22;44240;51.840;7.258;2024-01-30T09:17:04;10.10;80.40
58447;DHT22;44240;51.840;7.258;2024-01-30T09:19:31;10.10;80.40
58447;DHT22;44240;51.840;7.258;2024-01-30T09:21:57;10.20;81.50
58447;DHT22;44240;51.840;7.258;2024-01-30T09:24:25;10.20;80.40
58447;DHT22;44240;51.840;7.258;2024-01-30T09:26:52;10.20;80.30
58447;DHT22;44240;51.840;7.258;2024-01-30T09:29:19;10.30;80.30
58447;DHT22;44240;51.840;7.258;2024-01-30T09:31:47;10.30;80.20
58447;DHT22;44240;51.840;7.258;2024-01-30T09:34:14;10.40;80.20
58447;DHT22;44240;51.840;7.258;2024-01-30T09:36:41;10.40;80.10
58447;DHT22;44240;51.840;7.258;2024-01-30T09:39:08;10.40;80.10
58447;DHT22;44240;51.840;7.258;2024-01-30T09:41:48;10.50;80.20
58447;DHT22;44240;51.840;7.258;2024-01-30T09:44:16;10.50;80.10
58447;DHT22;44240;51.840;7.258;2024-01-30T09:46:46;10.50;80.10
58447;DHT22;44240;51.840;7.258;2024-01-30T09:49:13;10.60;80.30
58447;DHT22;44240;51.840;7.258;2024-01-30T09:51:44;10.60;81.20
58447;DHT22;44240;51.840;7.258;2024-01-30T09:54:14;10.70;80.30
58447;DHT22;44240;51.840;7.258;2024-01-30T09:56:40;10.70;80.20
58447;DHT22;44240;51.840;7.258;2024-01-30T09:59:07;10.80;80.10
58447;DHT22;44240;51.840;7.258;2024-01-30T10:01:35;10.90;80.00
58447;DHT22;44240;51.840;7.258;2024-01-30T10:04:04;11.00;80.00
58447;DHT22;44240;51.840;7.258;2024-01-30T10:06:31;11.10;79.70
58447;DHT22;44240;51.840;7.258;2024-01-30T10:08:57;11.20;79.60
58447;DHT22;44240;51.840;7.258;2024-01-30T10:11:24;11.30;79.40
58447;DHT22;44240;51.840;7.258;2024-01-30T10:13:51;11.40;79.10
58447;DHT22;44240;51.840;7.258;2024-01-30T10:16:18;11.50;79.10
58447;DHT22;44240;51.840;7.258;2024-01-30T10:18:45;11.50;78.70
58447;DHT22;44240;51.840;7.258;2024-01-30T10:21:12;11.60;78.50
58447;DHT22;44240;51.840;7.258;2024-01-30T10:23:39;11.70;78.20
58447;DHT22;44240;51.840;7.258;2024-01-30T10:26:07;11.80;77.80
58447;DHT22;44240;51.840;7.258;2024-01-30T10:28:34;11.90;77.60
58447;DHT22;44240;51.840;7.258;2024-01-30T10:31:02;12.00;77.50
58447;DHT22;44240;51.840;7.258;2024-01-30T10:33:32;12.10;77.10
58447;DHT22;44240;51.840;7.258;2024-01-30T10:36:06;12.20;76.80
58447;DHT22;44240;51.840;7.258;2024-01-30T10:38:33;12.30;76.50
58447;DHT22;44240;51.840;7.258;2024-01-30T10:41:01;12.40;77.40
58447;DHT22;44240;51.840;7.258;2024-01-30T10:43:32;12.50;76.00
58447;DHT22;44240;51.840;7.258;2024-01-30T10:48:33;12.60;75.20
58447;DHT22;44240;51.840;7.258;2024-01-30T10:51:04;12.80;75.10
58447;DHT22;44240;51.840;7.258;2024-01-30T10:53:31;12.80;74.80
58447;DHT22;44240;51.840;7.258;2024-01-30T10:55:59;12.90;74.50
58447;DHT22;44240;51.840;7.258;2024-01-30T10:58:27;13.00;74.60
58447;DHT22;44240;51.840;7.258;2024-01-30T11:00:54;13.10;75.30
58447;DHT22;44240;51.840;7.258;2024-01-30T11:03:22;13.20;74.30
58447;DHT22;44240;51.840;7.258;2024-01-30T11:05:50;13.30;73.60
58447;DHT22;44240;51.840;7.258;2024-01-30T11:08:26;13.30;73.40
58447;DHT22;44240;51.840;7.258;2024-01-30T11:10:58;13.40;73.10
58447;DHT22;44240;51.840;7.258;2024-01-30T11:13:31;13.40;73.10
58447;DHT22;44240;51.840;7.258;2024-01-30T11:16:06;13.50;72.60
58447;DHT22;44240;51.840;7.258;2024-01-30T11:18:35;13.50;72.90
58447;DHT22;44240;51.840;7.258;2024-01-30T11:21:04;13.50;72.80
58447;DHT22;44240;51.840;7.258;2024-01-30T11:23:33;13.60;72.60
58447;DHT22;44240;51.840;7.258;2024-01-30T11:26:00;13.60;72.30
58447;DHT22;44240;51.840;7.258;2024-01-30T11:28:33;13.70;72.20
58447;DHT22;44240;51.840;7.258;2024-01-30T11:31:05;13.70;72.00
58447;DHT22;44240;51.840;7.258;2024-01-30T11:33:33;13.70;72.00
58447;DHT22;44240;51.840;7.258;2024-01-30T11:36:01;13.80;71.80
58447;DHT22;44240;51.840;7.258;2024-01-30T11:38:29;13.80;71.80
58447;DHT22;44240;51.840;7.258;2024-01-30T11:40:56;13.80;71.80
58447;DHT22;44240;51.840;7.258;2024-01-30T11:43:26;13.80;71.80
58447;DHT22;44240;51.840;7.258;2024-01-30T11:45:52;13.80;71.80
58447;DHT22;44240;51.840;7.258;2024-01-30T11:48:20;13.80;71.80
58447;DHT22;44240;51.840;7.258;2024-01-30T11:50:47;13.80;71.60
58447;DHT22;44240;51.840;7.258;2024-01-30T11:53:14;13.80;71.70
58447;DHT22;44240;51.840;7.258;2024-01-30T11:55:41;13.80;71.90
58447;DHT22;44240;51.840;7.258;2024-01-30T11:58:08;13.80;72.00
58447;DHT22;44240;51.840;7.258;2024-01-30T12:00:35;13.80;72.00
58447;DHT22;44240;51.840;7.258;2024-01-30T12:03:03;13.90;72.00
58447;DHT22;44240;51.840;7.258;2024-01-30T12:05:31;13.90;72.10
58447;DHT22;44240;51.840;7.258;2024-01-30T12:07:58;13.90;72.10
58447;DHT22;44240;51.840;7.258;2024-01-30T12:10:27;13.90;72.20
58447;DHT22;44240;51.840;7.258;2024-01-30T12:12:55;13.90;72.20
58447;DHT22;44240;51.840;7.258;2024-01-30T12:15:22;14.00;72.00
58447;DHT22;44240;51.840;7.258;2024-01-30T12:17:49;14.00;72.10
58447;DHT22;44240;51.840;7.258;2024-01-30T12:20:20;14.00;72.00
58447;DHT22;44240;51.840;7.258;2024-01-30T12:22:49;14.10;72.00
58447;DHT22;44240;51.840;7.258;2024-01-30T12:25:18;14.10;72.00
58447;DHT22;44240;51.840;7.258;2024-01-30T12:27:49;14.10;71.90
58447;DHT22;44240;51.840;7.258;2024-01-30T12:30:20;14.00;72.00
58447;DHT22;44240;51.840;7.258;2024-01-30T12:32:50;14.00;72.00
58447;DHT22;44240;51.840;7.258;2024-01-30T12:35:19;14.00;72.20
58447;DHT22;44240;51.840;7.258;2024-01-30T12:37:48;14.00;72.30
58447;DHT22;44240;51.840;7.258;2024-01-30T12:40:16;14.00;72.40
58447;DHT22;44240;51.840;7.258;2024-01-30T12:42:45;13.90;72.50
58447;DHT22;44240;51.840;7.258;2024-01-30T12:45:15;13.90;72.50
58447;DHT22;44240;51.840;7.258;2024-01-30T12:47:42;13.90;72.50
58447;DHT22;44240;51.840;7.258;2024-01-30T12:50:09;13.90;72.50
58447;DHT22;44240;51.840;7.258;2024-01-30T12:52:36;13.90;72.60
58447;DHT22;44240;51.840;7.258;2024-01-30T12:55:04;13.90;72.50
58447;DHT22;44240;51.840;7.258;2024-01-30T12:57:31;13.90;72.50
58447;DHT22;44240;51.840;7.258;2024-01-30T12:59:58;13.90;72.50
58447;DHT22;44240;51.840;7.258;2024-01-30T13:02:25;13.90;72.80
58447;DHT22;44240;51.840;7.258;2024-01-30T13:04:53;13.90;72.80
58447;DHT22;44240;51.840;7.258;2024-01-30T13:07:20;13.90;72.80
58447;DHT22;44240;51.840;7.258;2024-01-30T13:09:47;13.90;72.70
58447;DHT22;44240;51.840;7.258;2024-01-30T13:12:14;13.90;72.70
58447;DHT22;44240;51.840;7.258;2024-01-30T13:14:41;13.90;72.70
58447;DHT22;44240;51.840;7.258;2024-01-30T13:17:08;14.00;72.50
58447;DHT22;44240;51.840;7.258;2024-01-30T13:19:34;13.90;72.50
58447;DHT22;44240;51.840;7.258;2024-01-30T13:22:01;13.90;72.50
58447;DHT22;44240;51.840;7.258;2024-01-30T13:24:28;13.90;72.60
58447;DHT22;44240;51.840;7.258;2024-01-30T13:26:55;13.90;72.50
58447;DHT22;44240;51.840;7.258;2024-01-30T13:29:22;13.90;72.50
58447;DHT22;44240;51.840;7.258;2024-01-30T13:31:48;13.90;72.40
58447;DHT22;44240;51.840;7.258;2024-01-30T13:34:16;13.90;72.50
58447;DHT22;44240;51.840;7.258;2024-01-30T13:36:43;13.80;72.40
58447;DHT22;44240;51.840;7.258;2024-01-30T13:39:09;13.90;72.30
58447;DHT22;44240;51.840;7.258;2024-01-30T13:41:37;13.80;71.90
58447;DHT22;44240;51.840;7.258;2024-01-30T13:44:04;13.90;71.80
58447;DHT22;44240;51.840;7.258;2024-01-30T13:46:31;13.90;71.70
58447;DHT22;44240;51.840;7.258;2024-01-30T13:48:58;13.90;71.80
58447;DHT22;44240;51.840;7.258;2024-01-30T13:51:27;13.90;71.80
58447;DHT22;44240;51.840;7.258;2024-01-30T13:53:53;13.80;71.70
58447;DHT22;44240;51.840;7.258;2024-01-30T13:56:20;13.90;71.80
58447;DHT22;44240;51.840;7.258;2024-01-30T13:58:50;13.90;71.80
58447;DHT22;44240;51.840;7.258;2024-01-30T14:01:18;13.80;71.50
58447;DHT22;44240;51.840;7.258;2024-01-30T14:03:45;13.90;71.60
58447;DHT22;44240;51.840;7.258;2024-01-30T14:06:12;13.80;71.60
58447;DHT22;44240;51.840;7.258;2024-01-30T14:08:39;13.90;71.50
58447;DHT22;44240;51.840;7.258;2024-01-30T14:11:09;13.90;71.30
58447;DHT22;44240;51.840;7.258;2024-01-30T14:13:36;13.90;71.50
58447;DHT22;44240;51.840;7.258;2024-01-30T14:16:03;13.90;71.30
58447;DHT22;44240;51.840;7.258;2024-01-30T14:18:32;13.90;71.40
58447;DHT22;44240;51.840;7.258;2024-01-30T14:20:59;13.90;71.50
58447;DHT22;44240;51.840;7.258;2024-01-30T14:23:25;13.90;71.50
58447;DHT22;44240;51.840;7.258;2024-01-30T14:25:52;13.80;71.50
58447;DHT22;44240;51.840;7.258;2024-01-30T14:28:19;13.90;71.60
58447;DHT22;44240;51.840;7.258;2024-01-30T14:30:46;13.90;71.60
58447;DHT22;44240;51.840;7.258;2024-01-30T14:33:13;13.90;71.60
58447;DHT22;44240;51.840;7.258;2024-01-30T14:35:40;13.90;71.70
58447;DHT22;44240;51.840;7.258;2024-01-30T14:38:07;13.90;71.90
58447;DHT22;44240;51.840;7.258;2024-01-30T14:40:34;13.90;71.80
58447;DHT22;44240;51.840;7.258;2024-01-30T14:43:01;13.80;71.80
58447;DHT22;44240;51.840;7.258;2024-01-30T14:45:28;13.90;71.70
58447;DHT22;44240;51.840;7.258;2024-01-30T14:47:55;13.90;71.70
58447;DHT22;44240;51.840;7.258;2024-01-30T14:50:22;13.80;71.50
58447;DHT22;44240;51.840;7.258;2024-01-30T14:52:49;13.80;71.30
58447;DHT22;44240;51.840;7.258;2024-01-30T14:55:16;13.90;71.20
58447;DHT22;44240;51.840;7.258;2024-01-30T14:57:44;13.80;71.20
58447;DHT22;44240;51.840;7.258;2024-01-30T15:00:13;13.70;71.00
58447;DHT22;44240;51.840;7.258;2024-01-30T15:02:40;13.80;71.20
58447;DHT22;44240;51.840;7.258;2024-01-30T15:05:07;13.70;71.10
58447;DHT22;44240;51.840;7.258;2024-01-30T15:07:37;13.70;70.50
58447;DHT22;44240;51.840;7.258;2024-01-30T15:10:07;13.70;70.60
58447;DHT22;44240;51.840;7.258;2024-01-30T15:12:36;13.60;70.70
58447;DHT22;44240;51.840;7.258;2024-01-30T15:15:04;13.60;70.80
58447;DHT22;44240;51.840;7.258;2024-01-30T15:17:31;13.60;71.00
58447;DHT22;44240;51.840;7.258;2024-01-30T15:19:58;13.60;70.70
58447;DHT22;44240;51.840;7.258;2024-01-30T15:22:26;13.50;70.40
58447;DHT22;44240;51.840;7.258;2024-01-30T15:24:53;13.50;69.80
58447;DHT22;44240;51.840;7.258;2024-01-30T15:27:20;13.50;69.80
58447;DHT22;44240;51.840;7.258;2024-01-30T15:29:47;13.40;68.60
58447;DHT22;44240;51.840;7.258;2024-01-30T15:32:14;13.40;67.20
58447;DHT22;44240;51.840;7.258;2024-01-30T15:34:41;13.40;67.20
58447;DHT22;44240;51.840;7.258;2024-01-30T15:37:08;13.40;66.60
58447;DHT22;44240;51.840;7.258;2024-01-30T15:39:35;13.30;66.30
58447;DHT22;44240;51.840;7.258;2024-01-30T15:42:02;13.30;66.20
58447;DHT22;44240;51.840;7.258;2024-01-30T15:44:29;13.20;66.40